sensor_id;sensor_type;location;lat;lon;timestamp;P1;durP1;ratioP1;P2;durP2;ratioP2
71836;SDS011;59686;51.716;7.016;2024-03-22T00:00:30;27.60;;;20.20;;
71836;SDS011;59686;51.716;7.016;2024-03-22T00:02:56;25.98;;;19.88;;
71836;SDS011;59686;51.716;7.016;2024-03-22T00:05:22;24.40;;;19.05;;
71836;SDS011;59686;51.716;7.016;2024-03-22T00:07:47;27.75;;;20.27;;
71836;SDS011;59686;51.716;7.016;2024-03-22T00:10:13;27.13;;;20.05;;
71836;SDS011;59686;51.716;7.016;2024-03-22T00:12:39;26.63;;;19.88;;
71836;SDS011;59686;51.716;7.016;2024-03-22T00:15:08;28.25;;;19.65;;
71836;SDS011;59686;51.716;7.016;2024-03-22T00:17:33;27.40;;;20.23;;
71836;SDS011;59686;51.716;7.016;2024-03-22T00:20:00;25.75;;;19.80;;
71836;SDS011;59686;51.716;7.016;2024-03-22T00:22:25;26.83;;;19.80;;
71836;SDS011;59686;51.716;7.016;2024-03-22T00:24:51;27.50;;;19.55;;
71836;SDS011;59686;51.716;7.016;2024-03-22T00:27:17;26.23;;;19.65;;
71836;SDS011;59686;51.716;7.016;2024-03-22T00:29:42;27.42;;;19.08;;
71836;SDS011;59686;51.716;7.016;2024-03-22T00:32:09;27.25;;;19.08;;
71836;SDS011;59686;51.716;7.016;2024-03-22T00:34:34;26.23;;;18.83;;
71836;SDS011;59686;51.716;7.016;2024-03-22T00:37:00;27.30;;;19.17;;
71836;SDS011;59686;51.716;7.016;2024-03-22T00:39:26;24.85;;;18.90;;
71836;SDS011;59686;51.716;7.016;2024-03-22T00:41:52;29.35;;;18.92;;
71836;SDS011;59686;51.716;7.016;2024-03-22T00:44:17;24.55;;;18.35;;
71836;SDS011;59686;51.716;7.016;2024-03-22T00:46:43;24.90;;;18.48;;
71836;SDS011;59686;51.716;7.016;2024-03-22T00:49:16;24.77;;;17.88;;
71836;SDS011;59686;51.716;7.016;2024-03-22T00:51:41;26.25;;;18.30;;
71836;SDS011;59686;51.716;7.016;2024-03-22T00:54:09;24.73;;;17.83;;
71836;SDS011;59686;51.716;7.016;2024-03-22T00:56:34;25.98;;;17.75;;
71836;SDS011;59686;51.716;7.016;2024-03-22T00:59:00;25.77;;;18.20;;
71836;SDS011;59686;51.716;7.016;2024-03-22T01:01:30;25.17;;;17.60;;
71836;SDS011;59686;51.716;7.016;2024-03-22T01:03:56;24.13;;;17.50;;
71836;SDS011;59686;51.716;7.016;2024-03-22T01:06:21;26.83;;;18.75;;
71836;SDS011;59686;51.716;7.016;2024-03-22T01:08:50;24.25;;;17.88;;
71836;SDS011;59686;51.716;7.016;2024-03-22T01:11:30;24.83;;;18.05;;
71836;SDS011;59686;51.716;7.016;2024-03-22T01:13:55;27.60;;;18.45;;
71836;SDS011;59686;51.716;7.016;2024-03-22T01:16:22;25.98;;;18.05;;
71836;SDS011;59686;51.716;7.016;2024-03-22T01:18:48;28.08;;;18.58;;
71836;SDS011;59686;51.716;7.016;2024-03-22T01:21:13;28.02;;;18.38;;
71836;SDS011;59686;51.716;7.016;2024-03-22T01:23:39;26.38;;;18.20;;
71836;SDS011;59686;51.716;7.016;2024-03-22T01:26:05;28.70;;;18.85;;
71836;SDS011;59686;51.716;7.016;2024-03-22T01:28:30;24.90;;;17.40;;
71836;SDS011;59686;51.716;7.016;2024-03-22T01:30:56;25.35;;;17.33;;
71836;SDS011;59686;51.716;7.016;2024-03-22T01:33:22;25.08;;;17.90;;
71836;SDS011;59686;51.716;7.016;2024-03-22T01:35:47;28.90;;;18.52;;
71836;SDS011;59686;51.716;7.016;2024-03-22T01:38:13;26.13;;;18.10;;
71836;SDS011;59686;51.716;7.016;2024-03-22T01:40:39;26.55;;;17.63;;
71836;SDS011;59686;51.716;7.016;2024-03-22T01:43:05;25.17;;;17.70;;
71836;SDS011;59686;51.716;7.016;2024-03-22T01:45:31;27.60;;;16.42;;
71836;SDS011;59686;51.716;7.016;2024-03-22T01:47:58;25.45;;;17.17;;
71836;SDS011;59686;51.716;7.016;2024-03-22T01:50:24;26.58;;;17.60;;
71836;SDS011;59686;51.716;7.016;2024-03-22T01:52:50;26.45;;;18.15;;
71836;SDS011;59686;51.716;7.016;2024-03-22T01:55:19;25.88;;;18.17;;
71836;SDS011;59686;51.716;7.016;2024-03-22T01:57:45;28.33;;;17.65;;
71836;SDS011;59686;51.716;7.016;2024-03-22T02:00:11;26.98;;;17.83;;
71836;SDS011;59686;51.716;7.016;2024-03-22T02:02:37;29.10;;;17.38;;
71836;SDS011;59686;51.716;7.016;2024-03-22T02:05:13;27.50;;;17.75;;
71836;SDS011;59686;51.716;7.016;2024-03-22T02:07:54;25.27;;;17.45;;
71836;SDS011;59686;51.716;7.016;2024-03-22T02:10:20;26.17;;;17.85;;
71836;SDS011;59686;51.716;7.016;2024-03-22T02:12:49;27.27;;;17.85;;
71836;SDS011;59686;51.716;7.016;2024-03-22T02:15:15;27.48;;;18.73;;
71836;SDS011;59686;51.716;7.016;2024-03-22T02:17:40;26.80;;;17.88;;
71836;SDS011;59686;51.716;7.016;2024-03-22T02:20:06;26.42;;;17.85;;
71836;SDS011;59686;51.716;7.016;2024-03-22T02:22:33;26.45;;;16.55;;
71836;SDS011;59686;51.716;7.016;2024-03-22T02:25:00;27.48;;;18.27;;
71836;SDS011;59686;51.716;7.016;2024-03-22T02:27:25;26.65;;;17.95;;
71836;SDS011;59686;51.716;7.016;2024-03-22T02:29:51;26.25;;;17.63;;
71836;SDS011;59686;51.716;7.016;2024-03-22T02:32:17;26.08;;;17.00;;
71836;SDS011;59686;51.716;7.016;2024-03-22T02:34:42;27.92;;;17.85;;
71836;SDS011;59686;51.716;7.016;2024-03-22T02:37:08;26.15;;;17.58;;
71836;SDS011;59686;51.716;7.016;2024-03-22T02:39:34;24.10;;;17.08;;
71836;SDS011;59686;51.716;7.016;2024-03-22T02:41:59;25.35;;;17.48;;
71836;SDS011;59686;51.716;7.016;2024-03-22T02:44:25;25.00;;;16.30;;
71836;SDS011;59686;51.716;7.016;2024-03-22T02:46:51;24.92;;;16.45;;
71836;SDS011;59686;51.716;7.016;2024-03-22T02:49:16;27.15;;;17.75;;
71836;SDS011;59686;51.716;7.016;2024-03-22T02:51:53;28.55;;;17.58;;
71836;SDS011;59686;51.716;7.016;2024-03-22T02:54:19;27.42;;;18.02;;
71836;SDS011;59686;51.716;7.016;2024-03-22T02:56:44;26.38;;;18.25;;
71836;SDS011;59686;51.716;7.016;2024-03-22T02:59:10;24.85;;;17.25;;
71836;SDS011;59686;51.716;7.016;2024-03-22T03:01:36;28.35;;;18.05;;
71836;SDS011;59686;51.716;7.016;2024-03-22T03:04:01;25.48;;;17.75;;
71836;SDS011;59686;51.716;7.016;2024-03-22T03:09:05;24.27;;;17.05;;
71836;SDS011;59686;51.716;7.016;2024-03-22T03:11:33;25.02;;;17.33;;
71836;SDS011;59686;51.716;7.016;2024-03-22T03:13:58;25.20;;;17.83;;
71836;SDS011;59686;51.716;7.016;2024-03-22T03:16:24;28.60;;;18.02;;
71836;SDS011;59686;51.716;7.016;2024-03-22T03:18:51;26.77;;;17.58;;
71836;SDS011;59686;51.716;7.016;2024-03-22T03:21:17;26.88;;;17.48;;
71836;SDS011;59686;51.716;7.016;2024-03-22T03:23:42;27.58;;;17.58;;
71836;SDS011;59686;51.716;7.016;2024-03-22T03:26:08;25.05;;;17.35;;
71836;SDS011;59686;51.716;7.016;2024-03-22T03:28:34;28.02;;;17.95;;
71836;SDS011;59686;51.716;7.016;2024-03-22T03:30:59;28.05;;;18.77;;
71836;SDS011;59686;51.716;7.016;2024-03-22T03:33:25;26.98;;;17.38;;
71836;SDS011;59686;51.716;7.016;2024-03-22T03:35:51;31.70;;;18.70;;
71836;SDS011;59686;51.716;7.016;2024-03-22T03:38:16;26.85;;;18.10;;
71836;SDS011;59686;51.716;7.016;2024-03-22T03:40:42;27.70;;;17.52;;
71836;SDS011;59686;51.716;7.016;2024-03-22T03:43:07;28.23;;;17.77;;
71836;SDS011;59686;51.716;7.016;2024-03-22T03:45:36;27.40;;;17.88;;
71836;SDS011;59686;51.716;7.016;2024-03-22T03:48:02;27.90;;;17.98;;
71836;SDS011;59686;51.716;7.016;2024-03-22T03:50:28;29.05;;;17.75;;
71836;SDS011;59686;51.716;7.016;2024-03-22T03:52:54;27.33;;;18.60;;
71836;SDS011;59686;51.716;7.016;2024-03-22T03:55:19;28.33;;;18.83;;
71836;SDS011;59686;51.716;7.016;2024-03-22T03:57:45;26.25;;;18.50;;
71836;SDS011;59686;51.716;7.016;2024-03-22T04:00:18;27.05;;;18.23;;
71836;SDS011;59686;51.716;7.016;2024-03-22T04:02:44;28.15;;;18.17;;
71836;SDS011;59686;51.716;7.016;2024-03-22T04:05:10;29.05;;;18.35;;
71836;SDS011;59686;51.716;7.016;2024-03-22T04:07:36;26.73;;;18.38;;
71836;SDS011;59686;51.716;7.016;2024-03-22T04:10:02;30.38;;;18.67;;
71836;SDS011;59686;51.716;7.016;2024-03-22T04:12:28;28.45;;;19.55;;
71836;SDS011;59686;51.716;7.016;2024-03-22T04:14:54;29.08;;;18.67;;
71836;SDS011;59686;51.716;7.016;2024-03-22T04:17:19;27.10;;;18.55;;
71836;SDS011;59686;51.716;7.016;2024-03-22T04:19:45;26.00;;;18.70;;
71836;SDS011;59686;51.716;7.016;2024-03-22T04:22:11;26.83;;;18.30;;
71836;SDS011;59686;51.716;7.016;2024-03-22T04:24:37;27.85;;;18.65;;
71836;SDS011;59686;51.716;7.016;2024-03-22T04:27:02;29.27;;;19.35;;
71836;SDS011;59686;51.716;7.016;2024-03-22T04:29:28;29.83;;;18.45;;
71836;SDS011;59686;51.716;7.016;2024-03-22T04:31:54;28.77;;;18.98;;
71836;SDS011;59686;51.716;7.016;2024-03-22T04:34:20;26.05;;;18.27;;
71836;SDS011;59686;51.716;7.016;2024-03-22T04:36:52;26.88;;;17.88;;
71836;SDS011;59686;51.716;7.016;2024-03-22T04:39:21;29.92;;;18.42;;
71836;SDS011;59686;51.716;7.016;2024-03-22T04:41:49;27.95;;;18.20;;
71836;SDS011;59686;51.716;7.016;2024-03-22T04:44:15;28.75;;;18.88;;
71836;SDS011;59686;51.716;7.016;2024-03-22T04:46:41;29.98;;;17.48;;
71836;SDS011;59686;51.716;7.016;2024-03-22T04:49:09;28.75;;;19.08;;
71836;SDS011;59686;51.716;7.016;2024-03-22T04:51:34;27.80;;;17.88;;
71836;SDS011;59686;51.716;7.016;2024-03-22T04:54:00;28.30;;;17.75;;
71836;SDS011;59686;51.716;7.016;2024-03-22T04:56:26;28.05;;;18.25;;
71836;SDS011;59686;51.716;7.016;2024-03-22T04:58:51;28.77;;;18.55;;
71836;SDS011;59686;51.716;7.016;2024-03-22T05:01:18;28.13;;;18.65;;
71836;SDS011;59686;51.716;7.016;2024-03-22T05:03:44;26.25;;;18.15;;
71836;SDS011;59686;51.716;7.016;2024-03-22T05:06:10;30.67;;;18.48;;
71836;SDS011;59686;51.716;7.016;2024-03-22T05:08:35;28.15;;;17.70;;
71836;SDS011;59686;51.716;7.016;2024-03-22T05:11:01;27.98;;;18.63;;
71836;SDS011;59686;51.716;7.016;2024-03-22T05:16:29;28.50;;;18.33;;
71836;SDS011;59686;51.716;7.016;2024-03-22T05:18:55;26.70;;;17.73;;
71836;SDS011;59686;51.716;7.016;2024-03-22T05:21:21;26.15;;;17.40;;
71836;SDS011;59686;51.716;7.016;2024-03-22T05:23:51;26.27;;;18.45;;
71836;SDS011;59686;51.716;7.016;2024-03-22T05:26:17;29.00;;;18.60;;
71836;SDS011;59686;51.716;7.016;2024-03-22T05:28:45;27.45;;;18.52;;
71836;SDS011;59686;51.716;7.016;2024-03-22T05:31:11;26.27;;;17.70;;
71836;SDS011;59686;51.716;7.016;2024-03-22T05:33:37;28.27;;;18.45;;
71836;SDS011;59686;51.716;7.016;2024-03-22T05:36:02;28.08;;;18.05;;
71836;SDS011;59686;51.716;7.016;2024-03-22T05:38:28;25.90;;;17.73;;
71836;SDS011;59686;51.716;7.016;2024-03-22T05:40:54;27.52;;;18.17;;
71836;SDS011;59686;51.716;7.016;2024-03-22T05:43:19;29.27;;;18.02;;
71836;SDS011;59686;51.716;7.016;2024-03-22T05:45:45;29.73;;;18.40;;
71836;SDS011;59686;51.716;7.016;2024-03-22T05:48:11;25.40;;;18.02;;
71836;SDS011;59686;51.716;7.016;2024-03-22T05:50:36;28.70;;;18.02;;
71836;SDS011;59686;51.716;7.016;2024-03-22T05:53:02;30.83;;;17.95;;
71836;SDS011;59686;51.716;7.016;2024-03-22T05:55:28;27.75;;;18.05;;
71836;SDS011;59686;51.716;7.016;2024-03-22T05:57:56;26.95;;;17.27;;
71836;SDS011;59686;51.716;7.016;2024-03-22T06:00:22;27.33;;;17.50;;
71836;SDS011;59686;51.716;7.016;2024-03-22T06:02:47;25.80;;;17.38;;
71836;SDS011;59686;51.716;7.016;2024-03-22T06:05:13;25.58;;;17.13;;
71836;SDS011;59686;51.716;7.016;2024-03-22T06:07:39;25.10;;;17.23;;
71836;SDS011;59686;51.716;7.016;2024-03-22T06:10:07;27.20;;;17.80;;
71836;SDS011;59686;51.716;7.016;2024-03-22T06:12:35;27.00;;;18.13;;
71836;SDS011;59686;51.716;7.016;2024-03-22T06:15:01;24.67;;;17.80;;
71836;SDS011;59686;51.716;7.016;2024-03-22T06:17:31;27.00;;;17.30;;
71836;SDS011;59686;51.716;7.016;2024-03-22T06:19:58;24.05;;;17.58;;
71836;SDS011;59686;51.716;7.016;2024-03-22T06:22:24;22.35;;;16.17;;
71836;SDS011;59686;51.716;7.016;2024-03-22T06:24:50;27.17;;;17.92;;
71836;SDS011;59686;51.716;7.016;2024-03-22T06:27:16;24.55;;;17.10;;
71836;SDS011;59686;51.716;7.016;2024-03-22T06:29:42;25.38;;;17.67;;
71836;SDS011;59686;51.716;7.016;2024-03-22T06:32:08;24.02;;;16.63;;
71836;SDS011;59686;51.716;7.016;2024-03-22T06:34:33;25.85;;;17.40;;
71836;SDS011;59686;51.716;7.016;2024-03-22T06:36:59;25.42;;;16.48;;
71836;SDS011;59686;51.716;7.016;2024-03-22T06:39:25;23.35;;;16.35;;
71836;SDS011;59686;51.716;7.016;2024-03-22T06:41:51;25.60;;;17.05;;
71836;SDS011;59686;51.716;7.016;2024-03-22T06:44:16;23.75;;;16.08;;
71836;SDS011;59686;51.716;7.016;2024-03-22T06:46:42;23.45;;;16.45;;
71836;SDS011;59686;51.716;7.016;2024-03-22T06:49:08;25.60;;;16.58;;
71836;SDS011;59686;51.716;7.016;2024-03-22T06:51:34;28.02;;;18.05;;
71836;SDS011;59686;51.716;7.016;2024-03-22T06:53:59;22.98;;;16.73;;
71836;SDS011;59686;51.716;7.016;2024-03-22T06:56:25;22.42;;;16.90;;
71836;SDS011;59686;51.716;7.016;2024-03-22T06:58:51;24.67;;;16.10;;
71836;SDS011;59686;51.716;7.016;2024-03-22T07:01:16;25.45;;;16.52;;
71836;SDS011;59686;51.716;7.016;2024-03-22T07:03:42;23.95;;;16.55;;
71836;SDS011;59686;51.716;7.016;2024-03-22T07:06:10;25.40;;;16.63;;
71836;SDS011;59686;51.716;7.016;2024-03-22T07:08:45;23.55;;;16.63;;
71836;SDS011;59686;51.716;7.016;2024-03-22T07:11:11;23.33;;;16.33;;
71836;SDS011;59686;51.716;7.016;2024-03-22T07:13:37;23.40;;;16.52;;
71836;SDS011;59686;51.716;7.016;2024-03-22T07:18:47;21.15;;;16.17;;
71836;SDS011;59686;51.716;7.016;2024-03-22T07:21:13;25.80;;;17.05;;
71836;SDS011;59686;51.716;7.016;2024-03-22T07:23:39;23.65;;;16.40;;
71836;SDS011;59686;51.716;7.016;2024-03-22T07:26:08;21.00;;;15.63;;
71836;SDS011;59686;51.716;7.016;2024-03-22T07:28:34;21.80;;;15.43;;
71836;SDS011;59686;51.716;7.016;2024-03-22T07:31:00;24.95;;;15.63;;
71836;SDS011;59686;51.716;7.016;2024-03-22T07:33:25;24.73;;;16.88;;
71836;SDS011;59686;51.716;7.016;2024-03-22T07:35:51;22.42;;;16.13;;
71836;SDS011;59686;51.716;7.016;2024-03-22T07:38:19;22.38;;;15.82;;
71836;SDS011;59686;51.716;7.016;2024-03-22T07:40:45;22.42;;;16.02;;
71836;SDS011;59686;51.716;7.016;2024-03-22T07:43:10;22.42;;;14.93;;
71836;SDS011;59686;51.716;7.016;2024-03-22T07:45:40;22.50;;;15.32;;
71836;SDS011;59686;51.716;7.016;2024-03-22T07:48:06;21.67;;;15.10;;
71836;SDS011;59686;51.716;7.016;2024-03-22T07:50:31;21.70;;;15.20;;
71836;SDS011;59686;51.716;7.016;2024-03-22T07:52:57;20.55;;;14.65;;
71836;SDS011;59686;51.716;7.016;2024-03-22T07:55:23;22.20;;;15.18;;
71836;SDS011;59686;51.716;7.016;2024-03-22T07:57:48;19.00;;;13.90;;
71836;SDS011;59686;51.716;7.016;2024-03-22T08:00:14;21.55;;;15.15;;
71836;SDS011;59686;51.716;7.016;2024-03-22T08:02:41;20.20;;;15.05;;
71836;SDS011;59686;51.716;7.016;2024-03-22T08:05:07;22.67;;;14.52;;
71836;SDS011;59686;51.716;7.016;2024-03-22T08:07:32;22.48;;;15.13;;
71836;SDS011;59686;51.716;7.016;2024-03-22T08:09:58;23.80;;;15.07;;
71836;SDS011;59686;51.716;7.016;2024-03-22T08:15:10;23.67;;;15.00;;
71836;SDS011;59686;51.716;7.016;2024-03-22T08:17:36;19.95;;;14.15;;
71836;SDS011;59686;51.716;7.016;2024-03-22T08:20:02;21.17;;;14.38;;
71836;SDS011;59686;51.716;7.016;2024-03-22T08:22:28;21.45;;;14.02;;
71836;SDS011;59686;51.716;7.016;2024-03-22T08:25:02;20.25;;;13.52;;
71836;SDS011;59686;51.716;7.016;2024-03-22T08:27:29;17.35;;;13.23;;
71836;SDS011;59686;51.716;7.016;2024-03-22T08:35:56;20.13;;;13.52;;
71836;SDS011;59686;51.716;7.016;2024-03-22T08:38:21;20.00;;;13.02;;
71836;SDS011;59686;51.716;7.016;2024-03-22T08:40:47;20.38;;;13.40;;
71836;SDS011;59686;51.716;7.016;2024-03-22T08:43:13;19.30;;;13.60;;
71836;SDS011;59686;51.716;7.016;2024-03-22T08:45:39;20.90;;;13.85;;
71836;SDS011;59686;51.716;7.016;2024-03-22T08:48:04;21.27;;;14.30;;
71836;SDS011;59686;51.716;7.016;2024-03-22T08:50:30;22.73;;;13.57;;
71836;SDS011;59686;51.716;7.016;2024-03-22T08:52:56;18.65;;;13.02;;
71836;SDS011;59686;51.716;7.016;2024-03-22T08:55:22;19.10;;;12.75;;
71836;SDS011;59686;51.716;7.016;2024-03-22T08:57:55;18.35;;;13.05;;
71836;SDS011;59686;51.716;7.016;2024-03-22T09:00:20;18.55;;;13.00;;
71836;SDS011;59686;51.716;7.016;2024-03-22T09:02:46;17.17;;;12.52;;
71836;SDS011;59686;51.716;7.016;2024-03-22T09:05:12;16.83;;;12.45;;
71836;SDS011;59686;51.716;7.016;2024-03-22T09:07:38;18.35;;;12.63;;
71836;SDS011;59686;51.716;7.016;2024-03-22T09:10:04;19.67;;;12.48;;
71836;SDS011;59686;51.716;7.016;2024-03-22T09:12:31;17.65;;;12.98;;
71836;SDS011;59686;51.716;7.016;2024-03-22T09:14:57;19.52;;;12.00;;
71836;SDS011;59686;51.716;7.016;2024-03-22T09:20:13;19.20;;;12.15;;
71836;SDS011;59686;51.716;7.016;2024-03-22T09:22:39;15.10;;;11.30;;
71836;SDS011;59686;51.716;7.016;2024-03-22T09:25:05;18.02;;;12.65;;
71836;SDS011;59686;51.716;7.016;2024-03-22T09:27:32;16.08;;;11.95;;
71836;SDS011;59686;51.716;7.016;2024-03-22T09:29:58;17.95;;;12.35;;
71836;SDS011;59686;51.716;7.016;2024-03-22T09:32:23;17.25;;;11.32;;
71836;SDS011;59686;51.716;7.016;2024-03-22T09:35:00;14.80;;;10.88;;
71836;SDS011;59686;51.716;7.016;2024-03-22T09:37:26;17.67;;;11.88;;
71836;SDS011;59686;51.716;7.016;2024-03-22T09:39:52;15.88;;;11.82;;
71836;SDS011;59686;51.716;7.016;2024-03-22T09:42:17;15.20;;;10.85;;
71836;SDS011;59686;51.716;7.016;2024-03-22T09:44:46;15.73;;;11.20;;
71836;SDS011;59686;51.716;7.016;2024-03-22T09:47:16;16.52;;;11.30;;
71836;SDS011;59686;51.716;7.016;2024-03-22T09:49:48;14.63;;;10.93;;
71836;SDS011;59686;51.716;7.016;2024-03-22T09:52:15;15.40;;;11.15;;
71836;SDS011;59686;51.716;7.016;2024-03-22T09:54:44;15.93;;;11.07;;
71836;SDS011;59686;51.716;7.016;2024-03-22T09:57:14;14.00;;;10.40;;
71836;SDS011;59686;51.716;7.016;2024-03-22T09:59:43;17.27;;;10.88;;
71836;SDS011;59686;51.716;7.016;2024-03-22T10:02:13;14.15;;;10.60;;
71836;SDS011;59686;51.716;7.016;2024-03-22T10:04:39;16.33;;;11.48;;
71836;SDS011;59686;51.716;7.016;2024-03-22T10:07:05;16.02;;;11.52;;
71836;SDS011;59686;51.716;7.016;2024-03-22T10:09:32;15.82;;;10.98;;
71836;SDS011;59686;51.716;7.016;2024-03-22T10:11:58;17.30;;;11.60;;
71836;SDS011;59686;51.716;7.016;2024-03-22T10:14:23;16.55;;;11.30;;
71836;SDS011;59686;51.716;7.016;2024-03-22T10:16:53;14.85;;;10.68;;
71836;SDS011;59686;51.716;7.016;2024-03-22T10:19:20;18.80;;;11.07;;
71836;SDS011;59686;51.716;7.016;2024-03-22T10:21:47;17.50;;;11.57;;
71836;SDS011;59686;51.716;7.016;2024-03-22T10:24:13;15.75;;;10.88;;
71836;SDS011;59686;51.716;7.016;2024-03-22T10:26:39;17.75;;;10.73;;
71836;SDS011;59686;51.716;7.016;2024-03-22T10:29:06;17.08;;;11.48;;
71836;SDS011;59686;51.716;7.016;2024-03-22T10:31:34;15.23;;;10.70;;
71836;SDS011;59686;51.716;7.016;2024-03-22T10:34:02;13.32;;;10.88;;
71836;SDS011;59686;51.716;7.016;2024-03-22T10:36:29;18.38;;;11.60;;
71836;SDS011;59686;51.716;7.016;2024-03-22T10:38:56;14.40;;;10.88;;
71836;SDS011;59686;51.716;7.016;2024-03-22T10:41:26;16.15;;;11.25;;
71836;SDS011;59686;51.716;7.016;2024-03-22T10:43:52;16.90;;;11.85;;
71836;SDS011;59686;51.716;7.016;2024-03-22T10:46:19;17.63;;;12.25;;
71836;SDS011;59686;51.716;7.016;2024-03-22T10:48:46;15.52;;;11.77;;
71836;SDS011;59686;51.716;7.016;2024-03-22T10:51:12;16.50;;;11.77;;
71836;SDS011;59686;51.716;7.016;2024-03-22T10:53:39;19.02;;;12.73;;
71836;SDS011;59686;51.716;7.016;2024-03-22T10:56:06;20.15;;;13.90;;
71836;SDS011;59686;51.716;7.016;2024-03-22T10:58:34;16.55;;;12.23;;
71836;SDS011;59686;51.716;7.016;2024-03-22T11:01:04;16.23;;;11.75;;
71836;SDS011;59686;51.716;7.016;2024-03-22T11:03:30;16.02;;;12.57;;
71836;SDS011;59686;51.716;7.016;2024-03-22T11:05:58;14.98;;;12.30;;
71836;SDS011;59686;51.716;7.016;2024-03-22T11:08:24;20.27;;;12.80;;
71836;SDS011;59686;51.716;7.016;2024-03-22T11:10:51;20.70;;;12.57;;
71836;SDS011;59686;51.716;7.016;2024-03-22T11:13:17;17.40;;;12.32;;
71836;SDS011;59686;51.716;7.016;2024-03-22T11:15:43;19.77;;;13.32;;
71836;SDS011;59686;51.716;7.016;2024-03-22T11:18:09;17.63;;;12.63;;
71836;SDS011;59686;51.716;7.016;2024-03-22T11:20:38;20.08;;;13.35;;
71836;SDS011;59686;51.716;7.016;2024-03-22T11:23:04;16.35;;;12.38;;
71836;SDS011;59686;51.716;7.016;2024-03-22T11:25:33;17.83;;;11.85;;
71836;SDS011;59686;51.716;7.016;2024-03-22T11:27:59;17.48;;;13.25;;
71836;SDS011;59686;51.716;7.016;2024-03-22T11:30:29;16.17;;;12.20;;
71836;SDS011;59686;51.716;7.016;2024-03-22T11:32:57;16.33;;;12.30;;
71836;SDS011;59686;51.716;7.016;2024-03-22T11:35:25;16.60;;;12.57;;
71836;SDS011;59686;51.716;7.016;2024-03-22T11:37:51;15.80;;;12.75;;
71836;SDS011;59686;51.716;7.016;2024-03-22T11:40:17;15.77;;;12.75;;
71836;SDS011;59686;51.716;7.016;2024-03-22T11:42:47;15.85;;;13.23;;
71836;SDS011;59686;51.716;7.016;2024-03-22T11:45:16;16.88;;;13.07;;
71836;SDS011;59686;51.716;7.016;2024-03-22T11:47:46;14.75;;;12.32;;
71836;SDS011;59686;51.716;7.016;2024-03-22T11:50:12;16.10;;;11.90;;
71836;SDS011;59686;51.716;7.016;2024-03-22T11:52:42;19.15;;;12.77;;
71836;SDS011;59686;51.716;7.016;2024-03-22T11:57:57;15.75;;;12.18;;
71836;SDS011;59686;51.716;7.016;2024-03-22T12:00:23;18.85;;;13.63;;
71836;SDS011;59686;51.716;7.016;2024-03-22T12:02:50;19.08;;;13.50;;
71836;SDS011;59686;51.716;7.016;2024-03-22T12:05:22;16.35;;;12.70;;
71836;SDS011;59686;51.716;7.016;2024-03-22T12:07:51;17.95;;;13.45;;
71836;SDS011;59686;51.716;7.016;2024-03-22T12:10:17;17.77;;;13.63;;
71836;SDS011;59686;51.716;7.016;2024-03-22T12:12:43;19.38;;;13.00;;
71836;SDS011;59686;51.716;7.016;2024-03-22T12:15:09;16.65;;;12.73;;
71836;SDS011;59686;51.716;7.016;2024-03-22T12:17:34;16.88;;;13.35;;
71836;SDS011;59686;51.716;7.016;2024-03-22T12:20:02;15.57;;;12.77;;
71836;SDS011;59686;51.716;7.016;2024-03-22T12:22:29;16.65;;;12.68;;
71836;SDS011;59686;51.716;7.016;2024-03-22T12:24:55;17.55;;;13.98;;
71836;SDS011;59686;51.716;7.016;2024-03-22T12:27:22;16.13;;;12.63;;
71836;SDS011;59686;51.716;7.016;2024-03-22T12:29:47;16.33;;;12.75;;
71836;SDS011;59686;51.716;7.016;2024-03-22T12:32:13;16.42;;;13.25;;
71836;SDS011;59686;51.716;7.016;2024-03-22T12:38:02;18.08;;;13.45;;
71836;SDS011;59686;51.716;7.016;2024-03-22T12:40:28;14.63;;;12.77;;
71836;SDS011;59686;51.716;7.016;2024-03-22T12:42:54;14.85;;;13.25;;
71836;SDS011;59686;51.716;7.016;2024-03-22T12:45:27;16.42;;;12.95;;
71836;SDS011;59686;51.716;7.016;2024-03-22T12:47:53;17.95;;;13.25;;
71836;SDS011;59686;51.716;7.016;2024-03-22T12:50:19;17.80;;;13.43;;
71836;SDS011;59686;51.716;7.016;2024-03-22T12:52:44;17.27;;;13.05;;
71836;SDS011;59686;51.716;7.016;2024-03-22T12:55:10;17.45;;;13.88;;
71836;SDS011;59686;51.716;7.016;2024-03-22T12:57:36;19.15;;;14.32;;
71836;SDS011;59686;51.716;7.016;2024-03-22T13:00:02;17.85;;;13.65;;
71836;SDS011;59686;51.716;7.016;2024-03-22T13:02:37;16.05;;;13.43;;
71836;SDS011;59686;51.716;7.016;2024-03-22T13:05:04;16.27;;;13.52;;
71836;SDS011;59686;51.716;7.016;2024-03-22T13:07:30;17.42;;;13.88;;
71836;SDS011;59686;51.716;7.016;2024-03-22T13:09:56;17.55;;;14.43;;
71836;SDS011;59686;51.716;7.016;2024-03-22T13:14:52;18.52;;;14.27;;
71836;SDS011;59686;51.716;7.016;2024-03-22T13:17:18;19.20;;;14.63;;
71836;SDS011;59686;51.716;7.016;2024-03-22T13:19:43;16.95;;;13.98;;
71836;SDS011;59686;51.716;7.016;2024-03-22T13:22:12;16.55;;;14.35;;
71836;SDS011;59686;51.716;7.016;2024-03-22T13:24:38;21.50;;;14.55;;
71836;SDS011;59686;51.716;7.016;2024-03-22T13:27:04;16.75;;;14.10;;
71836;SDS011;59686;51.716;7.016;2024-03-22T13:29:29;17.73;;;13.77;;
71836;SDS011;59686;51.716;7.016;2024-03-22T13:31:59;17.65;;;14.32;;
71836;SDS011;59686;51.716;7.016;2024-03-22T13:34:25;16.35;;;14.20;;
71836;SDS011;59686;51.716;7.016;2024-03-22T13:36:51;16.48;;;14.15;;
71836;SDS011;59686;51.716;7.016;2024-03-22T13:39:17;15.57;;;13.77;;
71836;SDS011;59686;51.716;7.016;2024-03-22T13:41:43;15.95;;;14.23;;
71836;SDS011;59686;51.716;7.016;2024-03-22T13:44:08;16.85;;;14.57;;
71836;SDS011;59686;51.716;7.016;2024-03-22T13:46:34;17.65;;;14.30;;
71836;SDS011;59686;51.716;7.016;2024-03-22T13:49:12;20.38;;;13.95;;
71836;SDS011;59686;51.716;7.016;2024-03-22T13:51:43;16.63;;;14.00;;
71836;SDS011;59686;51.716;7.016;2024-03-22T13:54:09;17.63;;;13.55;;
71836;SDS011;59686;51.716;7.016;2024-03-22T13:56:35;15.63;;;14.00;;
71836;SDS011;59686;51.716;7.016;2024-03-22T13:59:03;16.27;;;14.10;;
71836;SDS011;59686;51.716;7.016;2024-03-22T14:01:31;15.40;;;13.73;;
71836;SDS011;59686;51.716;7.016;2024-03-22T14:03:57;15.80;;;13.80;;
71836;SDS011;59686;51.716;7.016;2024-03-22T14:06:23;16.15;;;14.00;;
71836;SDS011;59686;51.716;7.016;2024-03-22T14:08:48;15.82;;;13.60;;
71836;SDS011;59686;51.716;7.016;2024-03-22T14:11:14;15.38;;;13.52;;
71836;SDS011;59686;51.716;7.016;2024-03-22T14:13:40;17.90;;;14.50;;
71836;SDS011;59686;51.716;7.016;2024-03-22T14:16:12;17.38;;;14.82;;
71836;SDS011;59686;51.716;7.016;2024-03-22T14:18:37;15.80;;;13.93;;
71836;SDS011;59686;51.716;7.016;2024-03-22T14:21:03;20.90;;;14.05;;
71836;SDS011;59686;51.716;7.016;2024-03-22T14:23:29;16.67;;;14.05;;
71836;SDS011;59686;51.716;7.016;2024-03-22T14:25:54;17.42;;;14.32;;
71836;SDS011;59686;51.716;7.016;2024-03-22T14:28:20;16.23;;;14.00;;
71836;SDS011;59686;51.716;7.016;2024-03-22T14:30:47;15.63;;;13.98;;
71836;SDS011;59686;51.716;7.016;2024-03-22T14:33:12;17.80;;;14.48;;
71836;SDS011;59686;51.716;7.016;2024-03-22T14:35:39;17.23;;;13.80;;
71836;SDS011;59686;51.716;7.016;2024-03-22T14:38:05;16.77;;;14.40;;
71836;SDS011;59686;51.716;7.016;2024-03-22T14:40:30;16.40;;;14.32;;
71836;SDS011;59686;51.716;7.016;2024-03-22T14:43:03;15.93;;;14.10;;
71836;SDS011;59686;51.716;7.016;2024-03-22T14:45:29;14.13;;;12.63;;